createdAt,value
2022-12-17T00:02:50.323Z,92.51
2022-12-17T00:08:18.981Z,92.34
2022-12-17T00:13:41.985Z,92.41
2022-12-17T00:19:03.236Z,92.90
2022-12-17T00:24:25.085Z,92.72
2022-12-17T00:29:46.374Z,92.43
2022-12-17T00:35:08.190Z,92.66
2022-12-17T00:40:30.259Z,92.77
2022-12-17T00:45:52.071Z,92.98
2022-12-17T00:51:14.370Z,93.10
2022-12-17T00:56:35.626Z,93.35
2022-12-17T01:01:57.336Z,93.15
2022-12-17T01:07:18.889Z,93.32
2022-12-17T01:12:40.210Z,93.43
2022-12-17T01:18:01.522Z,93.79
2022-12-17T01:23:27.350Z,93.72
2022-12-17T01:28:48.625Z,93.37
2022-12-17T01:34:12.758Z,93.43
2022-12-17T01:39:34.213Z,93.20
2022-12-17T01:44:58.761Z,93.05
2022-12-17T01:50:20.087Z,92.94
2022-12-17T01:55:43.169Z,93.21
2022-12-17T02:01:04.484Z,93.11
2022-12-17T02:06:47.288Z,93.18
2022-12-17T02:12:20.312Z,93.49
2022-12-17T02:17:48.130Z,93.52
2022-12-17T02:23:28.779Z,93.23
2022-12-17T02:28:53.187Z,92.99
2022-12-17T02:34:16.411Z,92.72
2022-12-17T02:39:38.401Z,92.61
2022-12-17T02:45:02.920Z,92.56
2022-12-17T02:50:26.299Z,92.98
2022-12-17T02:55:47.418Z,93.21
2022-12-17T03:01:08.827Z,93.06
2022-12-17T03:06:31.508Z,92.51
2022-12-17T03:11:53.168Z,92.51
2022-12-17T03:17:14.456Z,92.70
2022-12-17T03:22:36.070Z,92.65
2022-12-17T03:27:59.118Z,92.68
2022-12-17T03:33:20.270Z,92.43
2022-12-17T03:38:41.478Z,92.13
2022-12-17T03:44:02.800Z,92.18
2022-12-17T03:49:24.652Z,92.26
2022-12-17T03:54:46.316Z,92.51
2022-12-17T04:00:07.566Z,92.72
2022-12-17T04:05:33.755Z,92.34
2022-12-17T04:11:11.681Z,92.23
2022-12-17T04:16:33.026Z,92.28
2022-12-17T04:21:54.396Z,92.27
2022-12-17T04:27:15.634Z,92.13
2022-12-17T04:32:57.387Z,92.16
2022-12-17T04:38:18.794Z,92.29
2022-12-17T04:43:40.980Z,92.62
2022-12-17T04:49:22.131Z,92.14
2022-12-17T04:54:43.785Z,91.98
2022-12-17T05:00:05.035Z,92.16
2022-12-17T05:05:26.895Z,92.56
2022-12-17T05:10:50.854Z,92.86
2022-12-17T05:16:15.719Z,92.71
2022-12-17T05:21:37.073Z,92.34
2022-12-17T05:26:58.966Z,92.57
2022-12-17T05:32:20.650Z,92.69
2022-12-17T05:37:42.232Z,92.93
2022-12-17T05:43:20.438Z,92.67
2022-12-17T05:48:41.872Z,92.94
2022-12-17T05:54:03.257Z,92.64
2022-12-17T05:59:26.855Z,92.17
2022-12-17T06:04:48.109Z,92.35
2022-12-17T06:10:15.443Z,92.52
2022-12-17T06:15:39.124Z,92.71
2022-12-17T06:21:02.644Z,92.49
2022-12-17T06:26:24.270Z,92.02
2022-12-17T06:31:46.402Z,92.10
2022-12-17T06:37:08.189Z,92.06
2022-12-17T06:42:30.571Z,92.57
2022-12-17T06:47:51.846Z,92.31
2022-12-17T06:53:12.695Z,92.10
2022-12-17T06:58:34.297Z,92.10
2022-12-17T07:03:56.007Z,91.90
2022-12-17T07:09:19.191Z,92.03
2022-12-17T07:14:41.066Z,91.41
2022-12-17T07:20:02.400Z,91.63
2022-12-17T07:25:24.710Z,91.41
2022-12-17T07:30:52.664Z,91.42
2022-12-17T07:36:17.102Z,91.79
2022-12-17T07:41:38.471Z,91.41
2022-12-17T07:46:59.737Z,91.62
2022-12-17T07:52:21.298Z,91.65
2022-12-17T07:57:43.578Z,92.02
2022-12-17T08:03:05.072Z,92.32
2022-12-17T08:08:28.789Z,92.57
2022-12-17T08:13:50.283Z,92.97
2022-12-17T08:19:11.858Z,92.81
2022-12-17T08:24:33.562Z,92.89
2022-12-17T08:29:55.115Z,92.80
2022-12-17T08:35:17.938Z,92.59
2022-12-17T08:40:39.172Z,92.51
2022-12-17T08:46:09.115Z,92.55
2022-12-17T08:51:31.294Z,92.74
2022-12-17T08:56:56.115Z,92.90
2022-12-17T09:02:19.263Z,92.49
2022-12-17T09:07:40.605Z,92.61
2022-12-17T09:13:04.872Z,91.54
2022-12-17T09:18:26.905Z,90.94
2022-12-17T09:23:48.152Z,90.80
2022-12-17T09:29:10.433Z,90.54
2022-12-17T09:34:31.868Z,90.67
2022-12-17T09:39:53.208Z,90.91
2022-12-17T09:45:40.325Z,90.53
2022-12-17T09:51:05.337Z,89.99
2022-12-17T09:56:30.786Z,89.89
2022-12-17T10:01:54.053Z,89.17
2022-12-17T10:07:17.677Z,89.11
2022-12-17T10:12:40.157Z,89.25
2022-12-17T10:18:02.374Z,89.69
2022-12-17T10:23:24.393Z,89.05
2022-12-17T10:28:51.315Z,89.23
2022-12-17T10:34:17.298Z,89.63
2022-12-17T10:39:50.912Z,89.11
2022-12-17T10:45:12.519Z,89.41
2022-12-17T10:50:38.112Z,89.41
2022-12-17T10:56:11.744Z,88.79
2022-12-17T11:01:43.429Z,89.51
2022-12-17T11:07:08.808Z,89.10
2022-12-17T11:12:32.777Z,89.01
2022-12-17T11:17:57.258Z,88.98
2022-12-17T11:23:19.814Z,89.00
2022-12-17T11:28:44.776Z,89.42
2022-12-17T11:34:22.153Z,89.81
2022-12-17T11:40:02.239Z,90.24
2022-12-17T11:45:37.112Z,90.09
2022-12-17T11:51:30.188Z,90.54
2022-12-17T11:56:58.457Z,90.54
2022-12-17T12:02:52.111Z,90.74
2022-12-17T12:08:27.210Z,90.46
2022-12-17T12:14:30.069Z,90.59
2022-12-17T12:19:51.593Z,90.49
2022-12-17T12:25:16.196Z,90.19
2022-12-17T12:30:46.892Z,89.60
2022-12-17T12:36:26.033Z,88.11
2022-12-17T12:42:15.759Z,88.44
2022-12-17T12:47:54.396Z,88.18
2022-12-17T12:53:18.393Z,88.44
2022-12-17T12:58:49.242Z,87.94
2022-12-17T13:04:14.311Z,87.70
2022-12-17T13:09:17.547Z,87.89
2022-12-17T13:14:24.820Z,88.20
2022-12-17T13:19:38.881Z,88.49
2022-12-17T13:24:44.480Z,89.30
2022-12-17T13:29:48.730Z,89.11
2022-12-17T13:35:19.744Z,87.93
2022-12-17T13:40:42.213Z,88.42
2022-12-17T13:45:46.229Z,87.68
2022-12-17T13:51:02.265Z,87.22
2022-12-17T13:56:05.166Z,88.29
2022-12-17T14:01:11.359Z,88.21
2022-12-17T14:06:15.597Z,88.29
2022-12-17T14:11:40.408Z,88.76
2022-12-17T14:16:50.459Z,88.54
2022-12-17T14:21:55.695Z,88.61
2022-12-17T14:27:01.085Z,88.86
2022-12-17T14:32:23.607Z,88.98
2022-12-17T14:37:28.056Z,89.23
2022-12-17T14:42:35.691Z,89.51
2022-12-17T14:47:40.001Z,89.71
2022-12-17T14:52:54.937Z,89.71
2022-12-17T14:58:12.614Z,89.30
2022-12-17T15:03:22.569Z,89.36
2022-12-17T15:08:26.249Z,89.37
2022-12-17T15:13:29.353Z,89.67
2022-12-17T15:18:32.197Z,89.55
2022-12-17T15:23:41.013Z,89.62
2022-12-17T15:28:44.380Z,89.40
2022-12-17T15:33:47.313Z,89.14
2022-12-17T15:38:50.189Z,89.35
2022-12-17T15:43:53.114Z,89.63
2022-12-17T15:48:56.738Z,89.64
2022-12-17T15:53:59.926Z,90.00
2022-12-17T15:59:03.647Z,90.04
2022-12-17T16:04:10.760Z,89.43
2022-12-17T16:09:24.574Z,88.70
2022-12-17T16:14:29.747Z,88.17
2022-12-17T16:19:32.708Z,88.33
2022-12-17T16:24:35.559Z,88.70
2022-12-17T16:29:38.396Z,89.01
2022-12-17T16:34:44.507Z,88.35
2022-12-17T16:39:47.523Z,88.33
2022-12-17T16:44:50.377Z,88.46
2022-12-17T16:49:54.447Z,88.92
2022-12-17T16:54:58.529Z,88.52
2022-12-17T17:00:09.803Z,88.72
2022-12-17T17:05:13.645Z,89.07
2022-12-17T17:10:16.521Z,89.16
2022-12-17T17:15:19.935Z,89.20
2022-12-17T17:20:24.918Z,89.26
2022-12-17T17:25:43.834Z,89.22
2022-12-17T17:30:50.921Z,89.51
2022-12-17T17:35:54.288Z,89.25
2022-12-17T17:41:07.411Z,89.21
2022-12-17T17:46:35.587Z,89.18
2022-12-17T17:57:04.654Z,88.95
2022-12-17T18:02:09.942Z,89.01
2022-12-17T18:07:28.729Z,88.77
2022-12-17T18:12:50.402Z,88.30
2022-12-17T18:17:53.262Z,88.17
2022-12-17T18:22:56.247Z,88.36
2022-12-17T18:28:00.176Z,88.54
2022-12-17T18:33:03.178Z,88.92
2022-12-17T18:38:06.113Z,89.00
2022-12-17T18:43:24.811Z,89.09
2022-12-17T18:48:29.191Z,89.11
2022-12-17T18:53:32.688Z,89.14
2022-12-17T18:58:35.861Z,89.18
2022-12-17T19:03:39.123Z,89.23
2022-12-17T19:08:42.544Z,89.60
2022-12-17T19:13:46.426Z,89.64
2022-12-17T19:18:58.170Z,89.26
2022-12-17T19:24:04.671Z,89.17
2022-12-17T19:29:08.668Z,89.56
2022-12-17T19:34:15.243Z,89.16
2022-12-17T19:39:20.100Z,88.69
2022-12-17T19:44:23.006Z,88.69
2022-12-17T19:49:25.847Z,89.40
2022-12-17T19:54:28.756Z,89.22
2022-12-17T19:59:31.639Z,89.46
2022-12-17T20:04:34.914Z,89.62
2022-12-17T20:09:38.004Z,90.05
2022-12-17T20:14:41.340Z,90.46
2022-12-17T20:19:46.502Z,89.73
2022-12-17T20:30:30.834Z,89.65
2022-12-17T20:35:39.678Z,90.23
2022-12-17T20:40:42.577Z,89.88
2022-12-17T20:45:49.928Z,89.92
2022-12-17T20:50:52.832Z,89.86
2022-12-17T20:56:03.703Z,89.86
2022-12-17T21:01:15.522Z,89.50
2022-12-17T21:06:20.208Z,89.82
2022-12-17T21:11:25.613Z,90.34
2022-12-17T21:16:30.698Z,90.31
2022-12-17T21:21:36.971Z,90.49
2022-12-17T21:26:42.833Z,90.69
2022-12-17T21:31:48.627Z,90.84
2022-12-17T21:36:52.244Z,91.07
2022-12-17T21:42:13.906Z,90.87
2022-12-17T21:47:16.749Z,91.21
2022-12-17T21:52:19.667Z,91.61
2022-12-17T21:57:22.541Z,91.37
2022-12-17T22:02:25.456Z,91.41
2022-12-17T22:07:31.016Z,91.63
2022-12-17T22:12:56.305Z,91.79
2022-12-17T22:17:59.190Z,91.38
2022-12-17T22:23:02.614Z,91.50
2022-12-17T22:28:06.022Z,91.58
2022-12-17T22:33:32.327Z,91.48
2022-12-17T22:43:20.644Z,90.91
2022-12-17T22:44:45.633Z,91.03
2022-12-17T22:49:23.439Z,91.20
2022-12-17T22:54:26.317Z,91.42
2022-12-17T22:59:29.752Z,91.56
2022-12-17T23:04:32.621Z,91.82
2022-12-17T23:09:35.497Z,91.55
2022-12-17T23:14:38.296Z,91.33
2022-12-17T23:19:41.404Z,91.56
2022-12-17T23:24:44.392Z,91.68
2022-12-17T23:29:47.235Z,91.46
2022-12-17T23:34:50.028Z,91.63
2022-12-17T23:39:52.924Z,91.53
2022-12-17T23:44:55.730Z,91.33
2022-12-17T23:49:58.492Z,91.11
2022-12-17T23:55:01.451Z,91.11
